KSJT/SJT METAR and TAF weather

Enter ICAO airport designator
Station Type Date Time Source
KSJT METAR 2021/01/22 05:51 UTC NOAA

KSJT 220551Z AUTO 19007KT 10SM SCT120 12/12 A2993 RMK AO2 RAE22 SLP132 P0003 60015 T01220117 10122 20100 401500078 50000


Station Type Date Time Source
KSJT Decoded METAR 2021/01/22 05:51 UTC NOAA

MATHIS FIELD, TX, United States (KSJT) 31-21N 100-30W 581M
Jan 22, 2021 - 12:51 AM EST / 2021.01.22 0551 UTC
Wind: from the S (190 degrees) at 8 MPH (7 KT):0
Visibility: 10 mile(s):0
Sky conditions: partly cloudy
Precipitation last hour: 0.03 inches
Temperature: 54.0 F (12.2 C)
Dew Point: 53.1 F (11.7 C)
Relative Humidity: 96%
Pressure (altimeter): 29.93 in. Hg (1013 hPa)
Pressure tendency: 0.00 inches (0.0 hPa) higher than three hours ago
ob: KSJT 220551Z AUTO 19007KT 10SM SCT120 12/12 A2993 RMK AO2 RAE22 SLP132 P0003 60015 T01220117 10122 20100 401500078 50000
cycle: 6

Station Type Date Time Source
KSJT TAF 2021/01/22 06:22 UTC NOAA

TAF KSJT 220520Z 2206/2306 22005KT 3SM BR BKN050
TEMPO 2206/2209 1SM BR
FM221400 32007KT P6SM SCT100
FM222300 32007KT P6SM BKN015

Example: see airport list